createdAt,value
2023-03-29T00:00:01.354Z,2.28
2023-03-29T00:02:33.458Z,2.53
2023-03-29T00:05:02.027Z,3.13
2023-03-29T00:07:30.288Z,2.88
2023-03-29T00:09:57.981Z,2.50
2023-03-29T00:12:24.805Z,2.88
2023-03-29T00:14:52.730Z,3.50
2023-03-29T00:17:19.716Z,2.22
2023-03-29T00:19:46.544Z,3.08
2023-03-29T00:22:13.435Z,3.00
2023-03-29T00:24:40.496Z,2.60
2023-03-29T00:27:07.295Z,2.83
2023-03-29T00:29:34.176Z,2.65
2023-03-29T00:32:00.997Z,2.83
2023-03-29T00:34:30.822Z,3.28
2023-03-29T00:36:58.700Z,3.75
2023-03-29T00:39:26.414Z,3.25
2023-03-29T00:41:55.719Z,3.13
2023-03-29T00:44:56.459Z,2.78
2023-03-29T00:47:36.710Z,2.72
2023-03-29T00:50:31.603Z,3.60
2023-03-29T00:53:15.042Z,2.60
2023-03-29T00:55:53.975Z,3.50
2023-03-29T00:58:37.810Z,2.47
2023-03-29T01:01:10.863Z,2.20
2023-03-29T01:03:46.519Z,3.53
2023-03-29T01:06:16.872Z,2.25
2023-03-29T01:09:01.181Z,3.08
2023-03-29T01:11:42.804Z,3.25
2023-03-29T01:14:38.436Z,2.55
2023-03-29T01:17:06.650Z,2.80
2023-03-29T01:19:42.251Z,2.75
2023-03-29T01:22:41.683Z,3.28
2023-03-29T01:25:35.740Z,2.60
2023-03-29T01:28:15.292Z,3.53
2023-03-29T01:30:50.101Z,2.97
2023-03-29T01:33:24.251Z,2.42
2023-03-29T01:35:57.738Z,2.80
2023-03-29T01:38:31.254Z,2.47
2023-03-29T01:40:58.270Z,2.88
2023-03-29T01:43:43.352Z,2.92
2023-03-29T01:46:26.803Z,2.80
2023-03-29T01:49:02.079Z,2.50
2023-03-29T01:51:46.726Z,3.15
2023-03-29T01:54:19.895Z,2.58
2023-03-29T01:56:48.984Z,2.20
2023-03-29T01:59:23.273Z,1.80
2023-03-29T02:01:54.419Z,3.33
2023-03-29T02:04:38.040Z,2.72
2023-03-29T02:07:08.789Z,2.17
2023-03-29T02:09:37.290Z,3.43
2023-03-29T02:12:04.943Z,2.83
2023-03-29T02:14:32.828Z,2.78
2023-03-29T02:17:23.688Z,2.20
2023-03-29T02:20:01.236Z,3.20
2023-03-29T02:22:38.759Z,2.35
2023-03-29T02:25:09.233Z,2.25
2023-03-29T02:27:38.012Z,2.30
2023-03-29T02:30:10.720Z,2.95
2023-03-29T02:33:06.642Z,3.30
2023-03-29T02:35:45.744Z,2.92
2023-03-29T02:38:14.610Z,2.60
2023-03-29T02:40:42.635Z,2.90
2023-03-29T02:43:09.968Z,2.35
2023-03-29T02:45:37.392Z,2.60
2023-03-29T02:48:07.831Z,2.70
2023-03-29T02:50:39.694Z,2.40
2023-03-29T02:53:19.537Z,2.92
2023-03-29T02:55:47.926Z,1.73
2023-03-29T02:58:15.359Z,3.03
2023-03-29T03:00:51.254Z,2.85
2023-03-29T03:03:18.041Z,3.60
2023-03-29T03:05:49.039Z,2.38
2023-03-29T03:08:15.792Z,2.03
2023-03-29T03:10:42.702Z,2.50
2023-03-29T03:13:09.460Z,3.33
2023-03-29T03:15:36.264Z,3.58
2023-03-29T03:18:04.465Z,3.75
2023-03-29T03:20:32.209Z,2.72
2023-03-29T03:22:59.069Z,3.05
2023-03-29T03:25:25.762Z,2.67
2023-03-29T03:27:53.192Z,2.90
2023-03-29T03:30:22.573Z,2.80
2023-03-29T03:32:49.944Z,4.50
2023-03-29T03:35:22.769Z,2.22
2023-03-29T03:37:49.547Z,4.38
2023-03-29T03:40:17.630Z,3.03
2023-03-29T03:42:44.788Z,3.83
2023-03-29T03:45:12.219Z,3.40
2023-03-29T03:47:39.080Z,2.60
2023-03-29T03:50:24.322Z,3.53
2023-03-29T03:52:51.096Z,2.80
2023-03-29T03:55:17.933Z,3.03
2023-03-29T03:57:52.528Z,2.40
2023-03-29T04:00:20.594Z,3.88
2023-03-29T04:03:06.153Z,3.17
2023-03-29T04:05:42.008Z,2.97
2023-03-29T04:08:09.528Z,2.65
2023-03-29T04:11:00.027Z,2.63
2023-03-29T04:13:34.758Z,2.55
2023-03-29T04:16:21.779Z,2.22
2023-03-29T04:18:49.181Z,2.65
2023-03-29T04:21:17.006Z,2.60
2023-03-29T04:23:46.530Z,2.45
2023-03-29T04:26:14.392Z,2.13
2023-03-29T04:28:46.246Z,2.45
2023-03-29T04:31:32.272Z,2.65
2023-03-29T04:34:18.962Z,3.03
2023-03-29T04:36:50.176Z,2.70
2023-03-29T04:39:20.675Z,3.28
2023-03-29T04:41:53.267Z,3.28
2023-03-29T04:44:28.788Z,2.70
2023-03-29T04:46:58.161Z,4.40
2023-03-29T04:49:50.219Z,3.13
2023-03-29T04:52:33.361Z,2.50
2023-03-29T04:55:02.492Z,2.92
2023-03-29T04:57:41.269Z,3.22
2023-03-29T05:00:17.422Z,2.70
2023-03-29T05:03:04.459Z,2.88
2023-03-29T05:08:03.270Z,3.65
2023-03-29T05:10:41.301Z,2.80
2023-03-29T05:13:08.160Z,3.63
2023-03-29T05:15:35.357Z,3.03
2023-03-29T05:18:02.717Z,3.78
2023-03-29T05:20:31.334Z,2.47
2023-03-29T05:22:59.718Z,3.30
2023-03-29T05:25:50.974Z,2.60
2023-03-29T05:28:19.173Z,3.72
2023-03-29T05:30:46.628Z,3.88
2023-03-29T05:33:20.880Z,4.60
2023-03-29T05:35:47.663Z,2.85
2023-03-29T05:38:14.399Z,3.63
2023-03-29T05:40:41.522Z,3.45
2023-03-29T05:43:34.567Z,3.22
2023-03-29T05:46:01.747Z,3.45
2023-03-29T05:48:30.056Z,3.60
2023-03-29T05:50:57.785Z,3.58
2023-03-29T05:53:27.109Z,3.03
2023-03-29T05:55:54.599Z,3.97
2023-03-29T05:58:26.408Z,4.35
2023-03-29T06:00:53.481Z,4.05
2023-03-29T06:03:42.913Z,2.80
2023-03-29T06:06:10.714Z,3.35
2023-03-29T06:08:38.091Z,4.45
2023-03-29T06:11:13.428Z,4.45
2023-03-29T06:14:15.741Z,3.35
2023-03-29T06:16:48.357Z,4.38
2023-03-29T06:19:16.102Z,3.65
2023-03-29T06:21:43.217Z,4.35
2023-03-29T06:24:14.028Z,3.13
2023-03-29T06:26:47.026Z,4.20
2023-03-29T06:29:14.729Z,4.00
2023-03-29T06:31:43.005Z,4.10
2023-03-29T06:34:23.789Z,3.70
2023-03-29T06:37:00.505Z,3.85
2023-03-29T06:39:27.312Z,3.42
2023-03-29T06:42:20.679Z,3.83
2023-03-29T06:45:08.063Z,3.30
2023-03-29T06:47:38.493Z,4.63
2023-03-29T06:50:06.010Z,3.42
2023-03-29T06:52:52.558Z,4.43
2023-03-29T06:55:20.611Z,3.60
2023-03-29T06:57:48.013Z,3.67
2023-03-29T07:00:19.344Z,4.15
2023-03-29T07:03:23.294Z,4.35
2023-03-29T07:05:53.076Z,4.88
2023-03-29T07:08:22.381Z,4.40
2023-03-29T07:10:55.036Z,4.65
2023-03-29T07:13:42.640Z,3.80
2023-03-29T07:16:13.610Z,4.07
2023-03-29T07:18:59.302Z,4.38
2023-03-29T07:21:54.934Z,3.70
2023-03-29T07:24:26.439Z,5.25
2023-03-29T07:27:03.508Z,4.43
2023-03-29T07:29:31.685Z,4.18
2023-03-29T07:31:58.436Z,3.70
2023-03-29T07:34:49.241Z,4.50
2023-03-29T07:37:39.158Z,3.60
2023-03-29T07:40:16.208Z,3.75
2023-03-29T07:43:10.949Z,4.25
2023-03-29T07:45:42.146Z,4.00
2023-03-29T07:50:51.153Z,4.68
2023-03-29T07:53:23.013Z,5.23
2023-03-29T07:55:52.418Z,4.55
2023-03-29T07:58:37.854Z,5.45
2023-03-29T08:01:06.105Z,5.30
2023-03-29T08:03:56.202Z,5.10
2023-03-29T08:06:33.937Z,5.30
2023-03-29T08:09:01.438Z,4.95
2023-03-29T08:11:28.466Z,4.25
2023-03-29T08:14:01.723Z,3.80
2023-03-29T08:16:47.099Z,3.67
2023-03-29T08:19:16.543Z,3.95
2023-03-29T08:22:03.893Z,4.68
2023-03-29T08:24:48.470Z,3.78
2023-03-29T08:27:15.629Z,4.10
2023-03-29T08:29:42.471Z,3.30
2023-03-29T08:32:09.643Z,4.00
2023-03-29T08:34:36.954Z,3.80
2023-03-29T08:37:25.775Z,4.65
2023-03-29T08:39:55.265Z,3.97
2023-03-29T08:43:38.956Z,5.20
2023-03-29T08:46:49.563Z,3.70
2023-03-29T08:49:27.048Z,4.18
2023-03-29T08:51:58.777Z,4.93
2023-03-29T08:54:29.316Z,3.47
2023-03-29T08:57:48.053Z,3.92
2023-03-29T09:00:56.688Z,3.65
2023-03-29T09:03:48.948Z,3.72
2023-03-29T09:06:26.055Z,3.85
2023-03-29T09:08:58.776Z,3.95
2023-03-29T09:11:38.731Z,4.05
2023-03-29T09:14:19.357Z,3.78
2023-03-29T09:17:17.439Z,4.38
2023-03-29T09:20:21.381Z,4.93
2023-03-29T09:23:13.513Z,5.28
2023-03-29T09:26:49.034Z,3.90
2023-03-29T09:29:46.440Z,3.60
2023-03-29T09:32:24.241Z,3.95
2023-03-29T09:35:22.423Z,3.92
2023-03-29T09:37:52.620Z,4.13
2023-03-29T09:40:31.522Z,4.47
2023-03-29T09:43:14.257Z,4.53
2023-03-29T09:45:41.600Z,4.30
2023-03-29T09:48:14.757Z,4.40
2023-03-29T09:50:51.386Z,3.33
2023-03-29T09:53:20.974Z,4.68
2023-03-29T09:56:00.962Z,4.88
2023-03-29T09:58:38.938Z,4.57
2023-03-29T10:01:09.252Z,4.50
2023-03-29T10:03:37.268Z,4.40
2023-03-29T10:06:13.255Z,4.70
2023-03-29T10:08:57.814Z,4.47
2023-03-29T10:11:42.397Z,4.63
2023-03-29T10:14:33.801Z,4.07
2023-03-29T10:17:00.618Z,3.30
2023-03-29T10:19:35.462Z,3.95
2023-03-29T10:22:11.972Z,4.18
2023-03-29T10:24:38.746Z,4.45
2023-03-29T10:27:09.191Z,3.95
2023-03-29T10:29:42.399Z,4.38
2023-03-29T10:32:35.388Z,3.60
2023-03-29T10:35:19.242Z,3.90
2023-03-29T10:37:53.318Z,3.25
2023-03-29T10:40:26.831Z,3.78
2023-03-29T10:42:57.716Z,4.15
2023-03-29T10:45:28.774Z,3.88
2023-03-29T10:47:57.807Z,3.50
2023-03-29T10:50:26.995Z,3.38
2023-03-29T10:52:53.791Z,4.20
2023-03-29T10:55:22.124Z,3.05
2023-03-29T10:58:01.631Z,3.80
2023-03-29T11:00:40.708Z,4.00
2023-03-29T11:03:29.398Z,3.53
2023-03-29T11:06:24.938Z,4.20
2023-03-29T11:08:57.822Z,3.85
2023-03-29T11:11:44.331Z,3.00
2023-03-29T11:14:17.391Z,3.42
2023-03-29T11:17:17.698Z,2.92
2023-03-29T11:20:20.538Z,2.70
2023-03-29T11:22:55.962Z,2.33
2023-03-29T11:25:45.882Z,2.20
2023-03-29T11:28:25.578Z,2.50
2023-03-29T11:31:29.398Z,3.53
2023-03-29T11:34:14.373Z,2.72
2023-03-29T11:36:50.455Z,2.40
2023-03-29T11:39:32.851Z,2.42
2023-03-29T11:42:32.100Z,2.10
2023-03-29T11:45:00.455Z,2.17
2023-03-29T11:47:32.497Z,2.50
2023-03-29T11:50:21.082Z,2.50
2023-03-29T11:52:59.298Z,2.13
2023-03-29T11:55:32.501Z,2.42
2023-03-29T11:58:12.615Z,2.15
2023-03-29T12:00:45.732Z,2.00
2023-03-29T12:03:46.756Z,2.10
2023-03-29T12:06:50.618Z,2.60
2023-03-29T12:09:47.734Z,2.03
2023-03-29T12:12:17.877Z,2.67
2023-03-29T12:15:07.049Z,2.40
2023-03-29T12:17:39.745Z,1.83
2023-03-29T12:20:23.385Z,2.28
2023-03-29T12:22:51.638Z,2.40
2023-03-29T12:25:25.524Z,4.15
2023-03-29T12:28:44.098Z,2.33
2023-03-29T12:31:17.824Z,2.10
2023-03-29T12:34:30.997Z,1.95
2023-03-29T12:37:37.712Z,1.98
2023-03-29T12:40:31.213Z,2.10
2023-03-29T12:43:39.282Z,2.00
2023-03-29T12:46:31.215Z,1.95
2023-03-29T12:49:07.515Z,2.33
2023-03-29T12:51:35.474Z,1.95
2023-03-29T12:54:08.136Z,1.80
2023-03-29T12:56:58.206Z,2.20
2023-03-29T12:59:39.799Z,2.28
2023-03-29T13:02:15.586Z,1.73
2023-03-29T13:04:53.745Z,2.17
2023-03-29T13:07:23.080Z,2.13
2023-03-29T13:09:54.832Z,2.33
2023-03-29T13:12:31.420Z,2.35
2023-03-29T13:15:03.278Z,1.95
2023-03-29T13:17:49.536Z,2.15
2023-03-29T13:20:45.334Z,2.25
2023-03-29T13:23:27.543Z,2.60
2023-03-29T13:26:19.658Z,1.95
2023-03-29T13:29:10.718Z,1.92
2023-03-29T13:32:05.430Z,1.83
2023-03-29T13:34:48.381Z,2.10
2023-03-29T13:38:01.013Z,2.17
2023-03-29T13:40:31.712Z,1.40
2023-03-29T13:43:19.313Z,1.60
2023-03-29T13:46:21.028Z,1.58
2023-03-29T13:49:15.964Z,1.05
2023-03-29T13:52:16.327Z,1.20
2023-03-29T13:54:53.427Z,1.30
2023-03-29T13:57:25.135Z,1.45
2023-03-29T14:00:00.684Z,1.30
2023-03-29T14:02:55.941Z,1.58
2023-03-29T14:05:32.677Z,1.75
2023-03-29T14:08:21.988Z,1.58
2023-03-29T14:10:49.008Z,1.50
2023-03-29T14:13:19.581Z,1.33
2023-03-29T14:15:54.793Z,1.55
2023-03-29T14:18:23.906Z,1.42
2023-03-29T14:20:54.823Z,1.55
2023-03-29T14:23:25.035Z,1.75
2023-03-29T14:25:51.848Z,1.48
2023-03-29T14:28:27.876Z,1.88
2023-03-29T14:30:56.160Z,1.70
2023-03-29T14:33:28.880Z,1.50
2023-03-29T14:35:58.282Z,1.45
2023-03-29T14:38:26.214Z,1.58
2023-03-29T14:40:54.603Z,1.60
2023-03-29T14:43:27.384Z,2.42
2023-03-29T14:45:54.338Z,1.45
2023-03-29T14:48:21.288Z,1.67
2023-03-29T14:50:48.064Z,1.75
2023-03-29T14:53:21.061Z,2.47
2023-03-29T14:55:52.729Z,2.03
2023-03-29T14:58:33.096Z,1.80
2023-03-29T15:01:18.217Z,1.80
2023-03-29T15:04:06.103Z,1.23
2023-03-29T15:06:33.158Z,2.03
2023-03-29T15:09:05.877Z,1.70
2023-03-29T15:11:34.539Z,1.95
2023-03-29T15:14:08.590Z,1.90
2023-03-29T15:16:40.351Z,2.20
2023-03-29T15:19:07.336Z,2.03
2023-03-29T15:21:35.930Z,2.60
2023-03-29T15:24:04.266Z,1.80
2023-03-29T15:26:37.390Z,1.98
2023-03-29T15:29:13.282Z,1.70
2023-03-29T15:31:41.859Z,1.80
2023-03-29T15:34:13.855Z,1.10
2023-03-29T15:36:42.733Z,1.35
2023-03-29T15:39:15.335Z,1.60
2023-03-29T15:41:42.693Z,3.20
2023-03-29T15:44:10.587Z,1.70
2023-03-29T15:46:37.700Z,1.60
2023-03-29T15:49:05.162Z,2.13
2023-03-29T15:51:32.143Z,1.40
2023-03-29T15:53:58.893Z,2.55
2023-03-29T15:56:26.660Z,1.58
2023-03-29T15:58:53.403Z,1.80
2023-03-29T16:01:35.466Z,1.70
2023-03-29T16:04:14.547Z,1.80
2023-03-29T16:06:42.129Z,1.92
2023-03-29T16:09:11.755Z,1.88
2023-03-29T16:11:40.914Z,1.98
2023-03-29T16:14:27.334Z,1.80
2023-03-29T16:17:01.002Z,1.92
2023-03-29T16:19:29.834Z,1.65
2023-03-29T16:21:57.850Z,1.40
2023-03-29T16:24:27.754Z,1.80
2023-03-29T16:26:56.037Z,1.80
2023-03-29T16:29:24.688Z,1.98
2023-03-29T16:31:52.978Z,2.13
2023-03-29T16:34:21.006Z,1.83
2023-03-29T16:36:49.119Z,2.70
2023-03-29T16:39:18.067Z,2.25
2023-03-29T16:41:47.943Z,2.63
2023-03-29T16:44:23.740Z,2.28
2023-03-29T16:46:53.695Z,3.05
2023-03-29T16:49:20.505Z,2.10
2023-03-29T16:51:47.825Z,3.20
2023-03-29T16:54:15.180Z,2.08
2023-03-29T16:56:41.939Z,2.80
2023-03-29T16:59:09.333Z,1.88
2023-03-29T17:01:36.587Z,2.25
2023-03-29T17:04:03.601Z,2.20
2023-03-29T17:06:32.189Z,3.15
2023-03-29T17:08:59.423Z,2.03
2023-03-29T17:11:28.192Z,2.22
2023-03-29T17:13:56.155Z,2.10
2023-03-29T17:16:22.973Z,1.95
2023-03-29T17:18:49.782Z,1.80
2023-03-29T17:21:16.512Z,2.17
2023-03-29T17:23:43.248Z,1.85
2023-03-29T17:26:09.993Z,1.55
2023-03-29T17:28:37.075Z,1.98
2023-03-29T17:31:09.219Z,2.10
2023-03-29T17:33:36.471Z,1.50
2023-03-29T17:36:05.581Z,2.03
2023-03-29T17:38:34.279Z,1.70
2023-03-29T17:41:02.737Z,2.05
2023-03-29T17:43:29.645Z,2.03
2023-03-29T17:45:56.473Z,2.45
2023-03-29T17:48:24.220Z,2.08
2023-03-29T17:50:51.410Z,2.00
2023-03-29T17:53:18.176Z,1.83
2023-03-29T17:55:45.001Z,2.20
2023-03-29T17:58:11.798Z,2.13
2023-03-29T18:00:38.697Z,2.00
2023-03-29T18:03:05.801Z,2.22
2023-03-29T18:05:33.596Z,3.03
2023-03-29T18:08:00.354Z,1.95
2023-03-29T18:10:27.219Z,2.30
2023-03-29T18:12:54.579Z,1.80
2023-03-29T18:15:21.316Z,2.97
2023-03-29T18:17:48.058Z,1.63
2023-03-29T18:20:16.067Z,3.33
2023-03-29T18:22:44.097Z,2.70
2023-03-29T18:25:11.139Z,2.08
2023-03-29T18:27:39.417Z,2.40
2023-03-29T18:30:08.562Z,2.65
2023-03-29T18:32:36.180Z,2.15
2023-03-29T18:35:03.223Z,1.90
2023-03-29T18:37:29.999Z,2.97
2023-03-29T18:39:56.855Z,1.98
2023-03-29T18:42:23.688Z,2.40
2023-03-29T18:44:51.135Z,2.35
2023-03-29T18:47:18.350Z,2.30
2023-03-29T18:49:45.186Z,2.42
2023-03-29T18:52:12.141Z,2.25
2023-03-29T18:54:38.912Z,2.63
2023-03-29T18:57:05.688Z,2.17
2023-03-29T18:59:32.501Z,1.88
2023-03-29T19:01:59.225Z,2.60
2023-03-29T19:04:27.189Z,2.03
2023-03-29T19:06:55.607Z,2.20
2023-03-29T19:09:23.197Z,2.58
2023-03-29T19:11:49.902Z,2.08
2023-03-29T19:14:17.441Z,1.90
2023-03-29T19:16:44.208Z,2.47
2023-03-29T19:19:11.009Z,2.65
2023-03-29T19:21:38.519Z,2.15
2023-03-29T19:24:07.688Z,2.00
2023-03-29T19:26:34.472Z,2.28
2023-03-29T19:29:01.262Z,1.70
2023-03-29T19:31:28.269Z,1.90
2023-03-29T19:33:55.242Z,2.28
2023-03-29T19:36:22.497Z,1.95
2023-03-29T19:38:54.017Z,2.38
2023-03-29T19:41:20.843Z,1.70
2023-03-29T19:43:47.647Z,2.28
2023-03-29T19:46:15.729Z,2.00
2023-03-29T19:48:42.882Z,1.90
2023-03-29T19:51:09.659Z,2.20
2023-03-29T19:53:38.679Z,1.92
2023-03-29T19:56:07.812Z,2.25
2023-03-29T19:58:34.622Z,2.10
2023-03-29T20:01:01.579Z,1.80
2023-03-29T20:03:28.541Z,2.35
2023-03-29T20:05:56.698Z,1.90
2023-03-29T20:08:24.762Z,2.72
2023-03-29T20:10:59.297Z,2.33
2023-03-29T20:13:37.475Z,1.85
2023-03-29T20:16:14.795Z,2.05
2023-03-29T20:18:44.627Z,2.50
2023-03-29T20:21:16.812Z,2.10
2023-03-29T20:23:44.118Z,2.50
2023-03-29T20:26:10.990Z,2.22
2023-03-29T20:28:37.881Z,1.73
2023-03-29T20:31:07.801Z,2.22
2023-03-29T20:33:34.696Z,2.58
2023-03-29T20:36:01.631Z,2.38
2023-03-29T20:38:28.372Z,2.40
2023-03-29T20:40:55.361Z,2.55
2023-03-29T20:43:22.141Z,2.60
2023-03-29T20:45:52.719Z,2.97
2023-03-29T20:48:22.855Z,3.47
2023-03-29T20:50:50.034Z,3.15
2023-03-29T20:53:18.235Z,2.33
2023-03-29T20:55:45.236Z,3.20
2023-03-29T20:58:12.195Z,3.78
2023-03-29T21:00:40.340Z,3.53
2023-03-29T21:03:08.335Z,4.00
2023-03-29T21:05:35.582Z,4.13
2023-03-29T21:08:03.697Z,3.80
2023-03-29T21:10:30.804Z,5.13
2023-03-29T21:13:00.289Z,4.88
2023-03-29T21:15:28.664Z,4.57
2023-03-29T21:17:55.857Z,4.28
2023-03-29T21:20:22.780Z,3.97
2023-03-29T21:22:49.472Z,2.78
2023-03-29T21:25:16.534Z,3.30
2023-03-29T21:27:43.773Z,3.50
2023-03-29T21:30:11.275Z,3.35
2023-03-29T21:32:38.313Z,3.22
2023-03-29T21:35:05.882Z,3.33
2023-03-29T21:37:32.666Z,3.58
2023-03-29T21:39:59.341Z,3.00
2023-03-29T21:42:26.078Z,2.75
2023-03-29T21:44:52.824Z,3.30
2023-03-29T21:47:19.547Z,3.22
2023-03-29T21:49:46.317Z,3.05
2023-03-29T21:52:13.028Z,3.70
2023-03-29T21:54:39.714Z,3.08
2023-03-29T21:57:06.554Z,2.72
2023-03-29T21:59:33.366Z,3.33
2023-03-29T22:02:00.573Z,3.42
2023-03-29T22:04:36.436Z,3.00
2023-03-29T22:07:03.761Z,2.70
2023-03-29T22:09:34.763Z,2.72
2023-03-29T22:12:01.998Z,2.50
2023-03-29T22:14:30.225Z,2.70
2023-03-29T22:16:57.182Z,3.30
2023-03-29T22:19:24.046Z,3.17
2023-03-29T22:21:51.395Z,2.85
2023-03-29T22:24:18.416Z,3.70
2023-03-29T22:26:45.231Z,3.15
2023-03-29T22:29:12.197Z,3.58
2023-03-29T22:31:39.481Z,3.47
2023-03-29T22:34:06.884Z,4.32
2023-03-29T22:36:33.664Z,2.92
2023-03-29T22:39:03.324Z,2.83
2023-03-29T22:41:30.076Z,3.42
2023-03-29T22:43:58.844Z,3.22
2023-03-29T22:46:26.311Z,5.03
2023-03-29T22:48:53.293Z,5.78
2023-03-29T22:51:20.766Z,4.88
2023-03-29T22:53:47.587Z,4.95
2023-03-29T22:56:15.864Z,4.15
2023-03-29T22:58:43.209Z,4.82
2023-03-29T23:01:10.077Z,3.67
2023-03-29T23:03:37.144Z,3.95
2023-03-29T23:06:04.463Z,3.45
2023-03-29T23:08:35.234Z,2.97
2023-03-29T23:11:03.104Z,2.70
2023-03-29T23:13:30.377Z,3.20
2023-03-29T23:16:00.097Z,3.38
2023-03-29T23:18:29.597Z,4.00
2023-03-29T23:20:58.238Z,2.88
2023-03-29T23:23:26.955Z,3.67
2023-03-29T23:25:55.540Z,2.78
2023-03-29T23:28:27.236Z,3.30
2023-03-29T23:31:09.341Z,3.22
2023-03-29T23:33:42.575Z,4.40
2023-03-29T23:36:13.079Z,3.65
2023-03-29T23:38:40.452Z,3.90
2023-03-29T23:41:10.318Z,3.20
2023-03-29T23:43:40.521Z,3.10
2023-03-29T23:46:16.269Z,2.67
2023-03-29T23:48:48.955Z,3.47
2023-03-29T23:51:22.928Z,2.60
2023-03-29T23:53:50.164Z,2.80
2023-03-29T23:56:16.889Z,2.63
2023-03-29T23:58:44.409Z,2.42
